»·PEaware :: N335AK KSAC-KCRQ

N335AK :: KSAC-KCRQ

FLIGHT INFORMATION

Flight Status: Arrived
Operator: Privately registered:
United States
More flights under this callsign
Pilot: Gabor H. (24209)
Aircraft: Unknown
(EPIC)
More flights by this aircraft type
Origin: KSAC Sacramento Executive
United States
Destination: KCRQ McClellan-Palomar
United States
More flights between these airports :: More routes between these airports
Route: +FROGO FRA LHS V459 SLI V23 OCN
File this flight plan on PilotEdge
Remarks:
Altitude:
(Current/Filed)
27,000ft
Speed:
(Current/Filed)
325kts
Departed: 07-Nov-20 06:39 PM
Arrived: 07-Nov-20 07:56 PM
Distance/Time
Traveled:
383nm/1:16
Distance/Time
To Go:
Arrived

Flight Plot

Page will automatically refresh every two minutes.

Flight plan parsing failed; only flown route is shown


Map Options




Map Legend


Flown Route
Filed Route
Departure Airport
Arrival Airport
Navaid (VOR, NDB)
Fix

Horizontal Profiles

Position Reports

Time Latitude Longitude Heading Altitude Ground
Speed
07-Nov-20 18:23 38.514770 -121.498394 0 23ft 0kts
07-Nov-20 18:24 38.514770 -121.498394 226 23ft 0kts
07-Nov-20 18:25 38.514770 -121.498394 226 23ft 0kts
07-Nov-20 18:26 38.514770 -121.498394 226 23ft 0kts
07-Nov-20 18:27 38.514770 -121.498394 226 23ft 0kts
07-Nov-20 18:28 38.514770 -121.498394 226 23ft 0kts
07-Nov-20 18:29 38.514770 -121.498394 226 23ft 0kts
07-Nov-20 18:30 38.514770 -121.498394 226 23ft 0kts
07-Nov-20 18:31 38.514770 -121.498394 226 23ft 0kts
07-Nov-20 18:32 38.514770 -121.498394 226 23ft 0kts
07-Nov-20 18:33 38.513959 -121.496932 127 23ft 16kts
07-Nov-20 18:34 38.516963 -121.492635 32 25ft 24kts
07-Nov-20 18:35 38.519000 -121.490945 34 25ft 1kts
07-Nov-20 18:36 38.519178 -121.490346 106 25ft 0kts
07-Nov-20 18:37 38.518207 -121.489938 213 26ft 17kts
07-Nov-20 18:38 38.515875 -121.491857 212 25ft 81kts
07-Nov-20 18:39 38.489348 -121.529714 233 1830ft 176kts
07-Nov-20 18:40 38.457718 -121.585929 233 1989ft 202kts
07-Nov-20 18:41 38.424646 -121.644309 233 2912ft 206kts
07-Nov-20 18:42 38.382294 -121.651052 113 5998ft 230kts
07-Nov-20 18:43 38.357541 -121.573567 112 8810ft 244kts
07-Nov-20 18:44 38.319648 -121.500274 126 11499ft 257kts
07-Nov-20 18:45 38.274225 -121.426830 126 13967ft 274kts
07-Nov-20 18:46 38.225835 -121.349009 126 16208ft 290kts
07-Nov-20 18:47 38.174433 -121.266555 125 18125ft 305kts
07-Nov-20 18:48 38.118814 -121.177525 126 18803ft 345kts
07-Nov-20 18:49 38.057102 -121.079102 127 18803ft 364kts
07-Nov-20 18:51 37.995838 -120.981652 128 19983ft 339kts
07-Nov-20 18:52 37.938690 -120.891015 128 21477ft 323kts
07-Nov-20 18:53 37.882928 -120.802806 127 22686ft 326kts
07-Nov-20 18:54 37.825519 -120.712233 127 23539ft 333kts
07-Nov-20 18:55 37.767058 -120.620250 126 24294ft 339kts
07-Nov-20 18:56 37.708336 -120.528150 126 25277ft 334kts
07-Nov-20 18:57 37.650376 -120.437474 125 26270ft 332kts
07-Nov-20 18:58 37.591939 -120.346287 125 26813ft 345kts
07-Nov-20 18:59 37.529823 -120.249657 126 26806ft 362kts
07-Nov-20 19:00 37.465421 -120.149804 126 26817ft 371kts
07-Nov-20 19:01 37.400011 -120.048666 126 26844ft 375kts
07-Nov-20 19:02 37.333809 -119.946597 126 26857ft 378kts
07-Nov-20 19:03 37.267319 -119.844433 126 26855ft 379kts
07-Nov-20 19:04 37.200317 -119.741705 130 26858ft 382kts
07-Nov-20 19:05 37.132438 -119.638114 130 26862ft 386kts
07-Nov-20 19:06 37.045338 -119.569879 166 26862ft 374kts
07-Nov-20 19:07 36.946502 -119.526956 166 26863ft 380kts
07-Nov-20 19:08 36.846150 -119.483583 166 26855ft 383kts
07-Nov-20 19:09 36.745637 -119.440258 166 26859ft 383kts
07-Nov-20 19:10 36.644787 -119.396951 166 26866ft 384kts
07-Nov-20 19:10 36.560942 -119.361004 165 26874ft 384kts
07-Nov-20 19:11 36.459793 -119.317758 166 26869ft 383kts
07-Nov-20 19:12 36.359077 -119.274827 166 26870ft 383kts
07-Nov-20 19:13 36.258481 -119.232048 166 26876ft 383kts
07-Nov-20 19:14 36.157697 -119.189325 166 26877ft 383kts
07-Nov-20 19:15 36.057150 -119.146794 166 26888ft 383kts
07-Nov-20 19:16 35.956107 -119.104197 166 26893ft 384kts
07-Nov-20 19:17 35.855319 -119.061792 166 26883ft 383kts
07-Nov-20 19:18 35.754435 -119.019498 166 26882ft 382kts
07-Nov-20 19:19 35.654083 -118.977502 166 26879ft 381kts
07-Nov-20 19:20 35.554294 -118.935876 166 26879ft 378kts
07-Nov-20 19:21 35.454959 -118.894525 166 26882ft 376kts
07-Nov-20 19:22 35.356272 -118.853577 166 26882ft 373kts
07-Nov-20 19:23 35.258131 -118.812949 166 26883ft 371kts
07-Nov-20 19:24 35.160705 -118.772740 166 26611ft 378kts
07-Nov-20 19:25 35.056186 -118.729701 165 24595ft 411kts
07-Nov-20 19:26 34.947143 -118.684910 166 22400ft 409kts
07-Nov-20 19:27 34.841237 -118.641560 165 20248ft 395kts
07-Nov-20 19:28 34.739049 -118.599818 165 18177ft 383kts
07-Nov-20 19:29 34.642057 -118.552912 156 16173ft 371kts
07-Nov-20 19:30 34.550813 -118.499466 156 14229ft 356kts
07-Nov-20 19:31 34.465102 -118.449329 155 13187ft 319kts
07-Nov-20 19:32 34.389295 -118.405088 156 13176ft 289kts
07-Nov-20 19:33 34.314555 -118.361558 155 13220ft 316kts
07-Nov-20 19:34 34.232859 -118.314097 156 13239ft 333kts
07-Nov-20 19:35 34.148429 -118.265170 156 13038ft 343kts
07-Nov-20 19:36 34.062481 -118.215450 156 12975ft 340kts
07-Nov-20 19:37 33.977514 -118.166412 156 12982ft 338kts
07-Nov-20 19:38 33.892198 -118.117308 156 12316ft 341kts
07-Nov-20 19:39 33.807854 -118.068840 156 11007ft 328kts
07-Nov-20 19:40 33.740772 -118.004331 136 10980ft 300kts
07-Nov-20 19:41 33.682276 -117.935249 136 10985ft 291kts
07-Nov-20 19:42 33.624656 -117.867266 136 10991ft 295kts
07-Nov-20 19:43 33.564914 -117.796945 136 10992ft 304kts
07-Nov-20 19:44 33.505687 -117.727363 136 9581ft 288kts
07-Nov-20 19:45 33.449488 -117.661462 135 8088ft 281kts
07-Nov-20 19:46 33.394362 -117.596972 134 6604ft 271kts
07-Nov-20 19:47 33.343467 -117.537536 134 4999ft 231kts
07-Nov-20 19:48 33.297365 -117.483741 134 4993ft 239kts
07-Nov-20 19:49 33.247496 -117.425386 135 3988ft 243kts
07-Nov-20 19:50 33.189388 -117.399419 163 2674ft 208kts
07-Nov-20 19:51 33.139145 -117.379377 160 1435ft 139kts
07-Nov-20 19:52 33.125442 -117.353182 91 1122ft 105kts
07-Nov-20 19:53 33.122206 -117.318583 87 977ft 100kts
07-Nov-20 19:54 33.127327 -117.285841 78 338ft 85kts
07-Nov-20 19:55 33.127787 -117.277697 90 321ft 2kts
07-Nov-20 19:56 33.128052 -117.275300 159 324ft 10kts
07-Nov-20 19:57 33.127461 -117.274895 253 325ft 0kts
07-Nov-20 19:58 33.127461 -117.274895 253 325ft 0kts

Navigation Log

Ident Type
Flight plan parsing failed, navigation log unavailable